sensor_id;sensor_type;location;lat;lon;timestamp;P1;durP1;ratioP1;P2;durP2;ratioP2
55933;SDS011;41839;41.386;2.082;2023-03-15T00:00:46;1069.47;;;690.67;;
55933;SDS011;41839;41.386;2.082;2023-03-15T00:03:12;1069.05;;;697.22;;
55933;SDS011;41839;41.386;2.082;2023-03-15T00:05:43;1071.13;;;702.03;;
55933;SDS011;41839;41.386;2.082;2023-03-15T00:08:10;1060.43;;;675.33;;
55933;SDS011;41839;41.386;2.082;2023-03-15T00:10:45;1101.22;;;726.88;;
55933;SDS011;41839;41.386;2.082;2023-03-15T00:13:11;1092.38;;;752.90;;
55933;SDS011;41839;41.386;2.082;2023-03-15T00:15:48;1107.43;;;751.72;;
55933;SDS011;41839;41.386;2.082;2023-03-15T00:18:15;1086.53;;;740.30;;
55933;SDS011;41839;41.386;2.082;2023-03-15T00:20:42;1109.32;;;756.33;;
55933;SDS011;41839;41.386;2.082;2023-03-15T00:23:07;1111.38;;;757.92;;
55933;SDS011;41839;41.386;2.082;2023-03-15T00:25:34;1097.78;;;753.97;;
55933;SDS011;41839;41.386;2.082;2023-03-15T00:27:59;1090.78;;;750.40;;
55933;SDS011;41839;41.386;2.082;2023-03-15T00:30:25;1084.90;;;751.10;;
55933;SDS011;41839;41.386;2.082;2023-03-15T00:32:51;1054.03;;;736.60;;
55933;SDS011;41839;41.386;2.082;2023-03-15T00:35:18;1059.00;;;751.17;;
55933;SDS011;41839;41.386;2.082;2023-03-15T00:37:44;1026.00;;;741.00;;
55933;SDS011;41839;41.386;2.082;2023-03-15T00:40:10;1045.93;;;746.38;;
55933;SDS011;41839;41.386;2.082;2023-03-15T00:42:36;1053.30;;;750.05;;
55933;SDS011;41839;41.386;2.082;2023-03-15T00:45:02;1022.38;;;730.30;;
55933;SDS011;41839;41.386;2.082;2023-03-15T00:47:29;1005.92;;;730.00;;
55933;SDS011;41839;41.386;2.082;2023-03-15T00:49:54;991.92;;;718.42;;
55933;SDS011;41839;41.386;2.082;2023-03-15T00:52:20;990.80;;;716.60;;
55933;SDS011;41839;41.386;2.082;2023-03-15T00:54:52;984.50;;;745.15;;
55933;SDS011;41839;41.386;2.082;2023-03-15T00:57:18;971.03;;;728.70;;
55933;SDS011;41839;41.386;2.082;2023-03-15T00:59:44;951.80;;;723.00;;
55933;SDS011;41839;41.386;2.082;2023-03-15T01:02:10;958.30;;;738.65;;
55933;SDS011;41839;41.386;2.082;2023-03-15T01:04:35;948.40;;;720.97;;
55933;SDS011;41839;41.386;2.082;2023-03-15T01:07:01;944.20;;;732.08;;
55933;SDS011;41839;41.386;2.082;2023-03-15T01:11:55;937.00;;;723.92;;
55933;SDS011;41839;41.386;2.082;2023-03-15T01:14:22;930.65;;;720.22;;
55933;SDS011;41839;41.386;2.082;2023-03-15T01:16:48;923.20;;;727.05;;
55933;SDS011;41839;41.386;2.082;2023-03-15T01:19:14;897.00;;;736.40;;
55933;SDS011;41839;41.386;2.082;2023-03-15T01:21:39;866.17;;;698.72;;
55933;SDS011;41839;41.386;2.082;2023-03-15T01:24:05;922.38;;;744.17;;
55933;SDS011;41839;41.386;2.082;2023-03-15T01:26:31;900.55;;;718.75;;
55933;SDS011;41839;41.386;2.082;2023-03-15T01:28:57;902.80;;;739.90;;
55933;SDS011;41839;41.386;2.082;2023-03-15T01:31:24;880.22;;;708.42;;
55933;SDS011;41839;41.386;2.082;2023-03-15T01:33:51;879.75;;;724.05;;
55933;SDS011;41839;41.386;2.082;2023-03-15T01:36:17;879.97;;;717.63;;
55933;SDS011;41839;41.386;2.082;2023-03-15T01:38:43;864.88;;;715.65;;
55933;SDS011;41839;41.386;2.082;2023-03-15T01:41:13;894.80;;;751.90;;
55933;SDS011;41839;41.386;2.082;2023-03-15T01:43:38;892.60;;;732.97;;
55933;SDS011;41839;41.386;2.082;2023-03-15T01:46:16;876.78;;;737.03;;
55933;SDS011;41839;41.386;2.082;2023-03-15T01:56:55;874.58;;;720.92;;
55933;SDS011;41839;41.386;2.082;2023-03-15T01:59:26;888.08;;;710.45;;
55933;SDS011;41839;41.386;2.082;2023-03-15T02:01:56;900.95;;;707.92;;
55933;SDS011;41839;41.386;2.082;2023-03-15T02:04:30;904.97;;;724.10;;
55933;SDS011;41839;41.386;2.082;2023-03-15T02:06:59;866.95;;;682.60;;
55933;SDS011;41839;41.386;2.082;2023-03-15T02:09:41;910.15;;;726.17;;
55933;SDS011;41839;41.386;2.082;2023-03-15T02:12:14;954.05;;;709.25;;
55933;SDS011;41839;41.386;2.082;2023-03-15T02:15:21;932.03;;;701.97;;
55933;SDS011;41839;41.386;2.082;2023-03-15T02:17:47;920.75;;;712.85;;
55933;SDS011;41839;41.386;2.082;2023-03-15T02:20:26;897.23;;;695.47;;
55933;SDS011;41839;41.386;2.082;2023-03-15T02:23:01;912.03;;;702.17;;
55933;SDS011;41839;41.386;2.082;2023-03-15T02:25:33;954.53;;;711.65;;
55933;SDS011;41839;41.386;2.082;2023-03-15T02:28:01;964.97;;;708.10;;
55933;SDS011;41839;41.386;2.082;2023-03-15T02:30:29;962.85;;;695.42;;
55933;SDS011;41839;41.386;2.082;2023-03-15T02:32:55;923.40;;;707.42;;
55933;SDS011;41839;41.386;2.082;2023-03-15T02:35:25;915.80;;;728.75;;
55933;SDS011;41839;41.386;2.082;2023-03-15T02:37:52;912.72;;;705.78;;
55933;SDS011;41839;41.386;2.082;2023-03-15T02:40:19;906.03;;;734.22;;
55933;SDS011;41839;41.386;2.082;2023-03-15T02:42:46;889.45;;;696.78;;
55933;SDS011;41839;41.386;2.082;2023-03-15T02:45:15;885.00;;;709.72;;
55933;SDS011;41839;41.386;2.082;2023-03-15T02:47:41;916.88;;;705.95;;
55933;SDS011;41839;41.386;2.082;2023-03-15T02:50:09;854.15;;;705.42;;
55933;SDS011;41839;41.386;2.082;2023-03-15T02:52:35;865.88;;;723.30;;
55933;SDS011;41839;41.386;2.082;2023-03-15T02:55:01;886.30;;;715.88;;
55933;SDS011;41839;41.386;2.082;2023-03-15T02:57:26;877.78;;;714.65;;
55933;SDS011;41839;41.386;2.082;2023-03-15T02:59:52;903.90;;;701.38;;
55933;SDS011;41839;41.386;2.082;2023-03-15T03:02:19;830.10;;;731.80;;
55933;SDS011;41839;41.386;2.082;2023-03-15T03:04:44;818.58;;;704.90;;
55933;SDS011;41839;41.386;2.082;2023-03-15T03:07:10;839.72;;;714.80;;
55933;SDS011;41839;41.386;2.082;2023-03-15T03:09:36;819.85;;;683.08;;
55933;SDS011;41839;41.386;2.082;2023-03-15T03:12:01;879.30;;;742.65;;
55933;SDS011;41839;41.386;2.082;2023-03-15T03:14:27;876.80;;;737.83;;
55933;SDS011;41839;41.386;2.082;2023-03-15T03:16:52;887.40;;;716.17;;
55933;SDS011;41839;41.386;2.082;2023-03-15T03:19:18;846.25;;;697.05;;
55933;SDS011;41839;41.386;2.082;2023-03-15T03:21:43;848.00;;;694.50;;
55933;SDS011;41839;41.386;2.082;2023-03-15T03:24:09;881.80;;;696.53;;
55933;SDS011;41839;41.386;2.082;2023-03-15T03:26:36;884.28;;;720.50;;
55933;SDS011;41839;41.386;2.082;2023-03-15T03:29:02;908.42;;;721.80;;
55933;SDS011;41839;41.386;2.082;2023-03-15T03:31:31;909.40;;;726.20;;
55933;SDS011;41839;41.386;2.082;2023-03-15T03:33:58;899.78;;;713.55;;
55933;SDS011;41839;41.386;2.082;2023-03-15T03:36:23;894.95;;;703.88;;
55933;SDS011;41839;41.386;2.082;2023-03-15T03:38:49;867.90;;;696.20;;
55933;SDS011;41839;41.386;2.082;2023-03-15T03:41:15;863.42;;;704.72;;
55933;SDS011;41839;41.386;2.082;2023-03-15T03:43:41;851.92;;;712.05;;
55933;SDS011;41839;41.386;2.082;2023-03-15T03:46:07;784.72;;;702.78;;
55933;SDS011;41839;41.386;2.082;2023-03-15T03:48:33;776.75;;;703.20;;
55933;SDS011;41839;41.386;2.082;2023-03-15T03:50:59;794.78;;;719.95;;
55933;SDS011;41839;41.386;2.082;2023-03-15T03:53:24;751.78;;;679.00;;
55933;SDS011;41839;41.386;2.082;2023-03-15T03:55:50;762.33;;;686.08;;
55933;SDS011;41839;41.386;2.082;2023-03-15T03:58:16;757.75;;;684.42;;
55933;SDS011;41839;41.386;2.082;2023-03-15T04:00:41;784.50;;;708.22;;
55933;SDS011;41839;41.386;2.082;2023-03-15T04:03:07;787.10;;;708.88;;
55933;SDS011;41839;41.386;2.082;2023-03-15T04:05:33;763.67;;;693.92;;
55933;SDS011;41839;41.386;2.082;2023-03-15T04:07:59;750.53;;;681.28;;
55933;SDS011;41839;41.386;2.082;2023-03-15T04:10:24;774.45;;;702.95;;
55933;SDS011;41839;41.386;2.082;2023-03-15T04:12:53;747.00;;;673.75;;
55933;SDS011;41839;41.386;2.082;2023-03-15T04:15:19;786.42;;;716.17;;
55933;SDS011;41839;41.386;2.082;2023-03-15T04:17:48;769.60;;;697.72;;
55933;SDS011;41839;41.386;2.082;2023-03-15T04:20:23;760.17;;;682.92;;
55933;SDS011;41839;41.386;2.082;2023-03-15T04:22:50;760.33;;;686.28;;
55933;SDS011;41839;41.386;2.082;2023-03-15T04:25:15;762.85;;;692.20;;
55933;SDS011;41839;41.386;2.082;2023-03-15T04:27:41;768.05;;;696.00;;
55933;SDS011;41839;41.386;2.082;2023-03-15T04:30:07;776.13;;;706.05;;
55933;SDS011;41839;41.386;2.082;2023-03-15T04:32:33;762.28;;;692.53;;
55933;SDS011;41839;41.386;2.082;2023-03-15T04:34:59;780.58;;;710.00;;
55933;SDS011;41839;41.386;2.082;2023-03-15T04:37:26;767.60;;;698.07;;
55933;SDS011;41839;41.386;2.082;2023-03-15T04:39:52;761.42;;;695.25;;
55933;SDS011;41839;41.386;2.082;2023-03-15T04:42:18;752.75;;;686.97;;
55933;SDS011;41839;41.386;2.082;2023-03-15T04:44:44;766.08;;;696.63;;
55933;SDS011;41839;41.386;2.082;2023-03-15T04:47:09;762.95;;;692.92;;
55933;SDS011;41839;41.386;2.082;2023-03-15T04:49:35;762.85;;;693.35;;
55933;SDS011;41839;41.386;2.082;2023-03-15T04:52:00;765.45;;;697.10;;
55933;SDS011;41839;41.386;2.082;2023-03-15T04:54:26;760.53;;;691.00;;
55933;SDS011;41839;41.386;2.082;2023-03-15T04:56:53;757.53;;;689.22;;
55933;SDS011;41839;41.386;2.082;2023-03-15T04:59:18;756.90;;;689.33;;
55933;SDS011;41839;41.386;2.082;2023-03-15T05:01:44;764.50;;;698.15;;
55933;SDS011;41839;41.386;2.082;2023-03-15T05:04:09;767.75;;;699.85;;
55933;SDS011;41839;41.386;2.082;2023-03-15T05:06:34;775.20;;;705.08;;
55933;SDS011;41839;41.386;2.082;2023-03-15T05:09:00;766.85;;;694.75;;
55933;SDS011;41839;41.386;2.082;2023-03-15T05:11:25;760.22;;;687.05;;
55933;SDS011;41839;41.386;2.082;2023-03-15T05:13:51;772.88;;;700.63;;
55933;SDS011;41839;41.386;2.082;2023-03-15T05:16:17;763.53;;;691.17;;
55933;SDS011;41839;41.386;2.082;2023-03-15T05:18:42;782.33;;;708.47;;
55933;SDS011;41839;41.386;2.082;2023-03-15T05:21:09;753.33;;;683.42;;
55933;SDS011;41839;41.386;2.082;2023-03-15T05:23:36;780.65;;;710.50;;
55933;SDS011;41839;41.386;2.082;2023-03-15T05:26:02;756.85;;;688.42;;
55933;SDS011;41839;41.386;2.082;2023-03-15T05:28:27;782.90;;;713.70;;
55933;SDS011;41839;41.386;2.082;2023-03-15T05:30:56;765.63;;;697.88;;
55933;SDS011;41839;41.386;2.082;2023-03-15T05:33:22;759.78;;;690.85;;
55933;SDS011;41839;41.386;2.082;2023-03-15T05:35:48;763.47;;;692.75;;
55933;SDS011;41839;41.386;2.082;2023-03-15T05:38:15;769.50;;;698.00;;
55933;SDS011;41839;41.386;2.082;2023-03-15T05:40:43;781.05;;;709.88;;
55933;SDS011;41839;41.386;2.082;2023-03-15T05:43:10;790.08;;;718.65;;
55933;SDS011;41839;41.386;2.082;2023-03-15T05:45:36;770.63;;;696.63;;
55933;SDS011;41839;41.386;2.082;2023-03-15T05:48:02;754.80;;;685.20;;
55933;SDS011;41839;41.386;2.082;2023-03-15T05:50:28;765.25;;;697.30;;
55933;SDS011;41839;41.386;2.082;2023-03-15T05:52:54;778.22;;;710.85;;
55933;SDS011;41839;41.386;2.082;2023-03-15T05:55:21;784.88;;;717.20;;
55933;SDS011;41839;41.386;2.082;2023-03-15T05:57:46;774.88;;;706.22;;
55933;SDS011;41839;41.386;2.082;2023-03-15T06:00:12;761.95;;;696.70;;
55933;SDS011;41839;41.386;2.082;2023-03-15T06:02:39;768.83;;;701.77;;
55933;SDS011;41839;41.386;2.082;2023-03-15T06:05:05;787.65;;;718.00;;
55933;SDS011;41839;41.386;2.082;2023-03-15T06:07:31;756.30;;;684.75;;
55933;SDS011;41839;41.386;2.082;2023-03-15T06:09:57;765.22;;;693.33;;
55933;SDS011;41839;41.386;2.082;2023-03-15T06:12:22;763.58;;;691.92;;
55933;SDS011;41839;41.386;2.082;2023-03-15T06:14:48;774.05;;;700.00;;
55933;SDS011;41839;41.386;2.082;2023-03-15T06:17:13;768.40;;;694.42;;
55933;SDS011;41839;41.386;2.082;2023-03-15T06:19:38;769.55;;;694.40;;
55933;SDS011;41839;41.386;2.082;2023-03-15T06:22:04;749.55;;;676.95;;
55933;SDS011;41839;41.386;2.082;2023-03-15T06:24:30;730.40;;;659.85;;
55933;SDS011;41839;41.386;2.082;2023-03-15T06:26:55;751.25;;;678.05;;
55933;SDS011;41839;41.386;2.082;2023-03-15T06:29:21;749.95;;;678.08;;
55933;SDS011;41839;41.386;2.082;2023-03-15T06:31:47;770.05;;;696.75;;
55933;SDS011;41839;41.386;2.082;2023-03-15T06:34:16;753.70;;;680.72;;
55933;SDS011;41839;41.386;2.082;2023-03-15T06:36:42;754.10;;;681.30;;
55933;SDS011;41839;41.386;2.082;2023-03-15T06:39:09;770.85;;;705.30;;
55933;SDS011;41839;41.386;2.082;2023-03-15T06:41:37;745.47;;;679.47;;
55933;SDS011;41839;41.386;2.082;2023-03-15T06:44:03;745.73;;;682.00;;
55933;SDS011;41839;41.386;2.082;2023-03-15T06:46:29;746.25;;;679.88;;
55933;SDS011;41839;41.386;2.082;2023-03-15T06:48:54;753.25;;;687.88;;
55933;SDS011;41839;41.386;2.082;2023-03-15T06:51:20;782.58;;;714.75;;
55933;SDS011;41839;41.386;2.082;2023-03-15T06:53:46;756.60;;;691.92;;
55933;SDS011;41839;41.386;2.082;2023-03-15T06:56:11;746.55;;;680.72;;
55933;SDS011;41839;41.386;2.082;2023-03-15T06:58:36;739.92;;;674.67;;
55933;SDS011;41839;41.386;2.082;2023-03-15T07:01:02;728.10;;;663.55;;
55933;SDS011;41839;41.386;2.082;2023-03-15T07:03:27;737.53;;;672.65;;
55933;SDS011;41839;41.386;2.082;2023-03-15T07:05:53;740.45;;;673.30;;
55933;SDS011;41839;41.386;2.082;2023-03-15T07:08:22;753.28;;;685.35;;
55933;SDS011;41839;41.386;2.082;2023-03-15T07:10:49;760.45;;;692.88;;
55933;SDS011;41839;41.386;2.082;2023-03-15T07:13:16;759.83;;;692.17;;
55933;SDS011;41839;41.386;2.082;2023-03-15T07:15:43;751.70;;;686.40;;
55933;SDS011;41839;41.386;2.082;2023-03-15T07:18:08;744.65;;;680.55;;
55933;SDS011;41839;41.386;2.082;2023-03-15T07:20:34;746.45;;;680.75;;
55933;SDS011;41839;41.386;2.082;2023-03-15T07:23:00;738.35;;;673.00;;
55933;SDS011;41839;41.386;2.082;2023-03-15T07:25:26;739.95;;;674.28;;
55933;SDS011;41839;41.386;2.082;2023-03-15T07:27:52;729.00;;;662.22;;
55933;SDS011;41839;41.386;2.082;2023-03-15T07:30:18;704.53;;;639.45;;
55933;SDS011;41839;41.386;2.082;2023-03-15T07:32:44;737.30;;;670.97;;
55933;SDS011;41839;41.386;2.082;2023-03-15T07:35:10;726.65;;;657.58;;
55933;SDS011;41839;41.386;2.082;2023-03-15T07:37:36;711.05;;;641.60;;
55933;SDS011;41839;41.386;2.082;2023-03-15T07:40:02;738.75;;;665.60;;
55933;SDS011;41839;41.386;2.082;2023-03-15T07:42:34;708.72;;;637.55;;
55933;SDS011;41839;41.386;2.082;2023-03-15T07:45:00;738.30;;;664.73;;
55933;SDS011;41839;41.386;2.082;2023-03-15T07:47:25;749.10;;;674.50;;
55933;SDS011;41839;41.386;2.082;2023-03-15T07:49:51;750.15;;;678.40;;
55933;SDS011;41839;41.386;2.082;2023-03-15T07:52:17;755.13;;;684.80;;
55933;SDS011;41839;41.386;2.082;2023-03-15T07:54:45;747.88;;;678.53;;
55933;SDS011;41839;41.386;2.082;2023-03-15T07:57:11;747.80;;;682.13;;
55933;SDS011;41839;41.386;2.082;2023-03-15T07:59:36;753.50;;;686.13;;
55933;SDS011;41839;41.386;2.082;2023-03-15T08:02:03;753.25;;;687.97;;
55933;SDS011;41839;41.386;2.082;2023-03-15T08:04:29;774.17;;;704.40;;
55933;SDS011;41839;41.386;2.082;2023-03-15T08:06:55;764.42;;;695.60;;
55933;SDS011;41839;41.386;2.082;2023-03-15T08:09:20;789.65;;;720.00;;
55933;SDS011;41839;41.386;2.082;2023-03-15T08:11:46;793.60;;;723.85;;
55933;SDS011;41839;41.386;2.082;2023-03-15T08:14:11;770.53;;;702.67;;
55933;SDS011;41839;41.386;2.082;2023-03-15T08:16:37;773.13;;;706.40;;
55933;SDS011;41839;41.386;2.082;2023-03-15T08:19:04;774.72;;;705.83;;
55933;SDS011;41839;41.386;2.082;2023-03-15T08:21:29;792.80;;;722.30;;
55933;SDS011;41839;41.386;2.082;2023-03-15T08:23:57;798.95;;;727.58;;
55933;SDS011;41839;41.386;2.082;2023-03-15T08:26:23;807.60;;;735.42;;
55933;SDS011;41839;41.386;2.082;2023-03-15T08:28:49;785.72;;;714.50;;
55933;SDS011;41839;41.386;2.082;2023-03-15T08:31:14;794.92;;;724.53;;
55933;SDS011;41839;41.386;2.082;2023-03-15T08:33:40;814.28;;;744.35;;
55933;SDS011;41839;41.386;2.082;2023-03-15T08:36:05;793.17;;;725.80;;
55933;SDS011;41839;41.386;2.082;2023-03-15T08:38:31;785.28;;;718.15;;
55933;SDS011;41839;41.386;2.082;2023-03-15T08:40:57;829.22;;;759.03;;
55933;SDS011;41839;41.386;2.082;2023-03-15T08:43:22;819.63;;;751.72;;
55933;SDS011;41839;41.386;2.082;2023-03-15T08:45:49;810.05;;;739.40;;
55933;SDS011;41839;41.386;2.082;2023-03-15T08:48:15;841.73;;;773.57;;
55933;SDS011;41839;41.386;2.082;2023-03-15T08:50:41;802.35;;;738.38;;
55933;SDS011;41839;41.386;2.082;2023-03-15T08:53:07;792.30;;;730.40;;
55933;SDS011;41839;41.386;2.082;2023-03-15T08:55:33;806.72;;;743.97;;
55933;SDS011;41839;41.386;2.082;2023-03-15T08:57:58;850.42;;;784.78;;
55933;SDS011;41839;41.386;2.082;2023-03-15T09:00:25;852.72;;;787.58;;
55933;SDS011;41839;41.386;2.082;2023-03-15T09:02:51;840.65;;;777.53;;
55933;SDS011;41839;41.386;2.082;2023-03-15T09:05:18;812.72;;;749.95;;
55933;SDS011;41839;41.386;2.082;2023-03-15T09:07:45;816.42;;;753.30;;
55933;SDS011;41839;41.386;2.082;2023-03-15T09:10:11;801.42;;;740.55;;
55933;SDS011;41839;41.386;2.082;2023-03-15T09:12:42;836.47;;;773.78;;
55933;SDS011;41839;41.386;2.082;2023-03-15T09:15:08;833.47;;;771.25;;
55933;SDS011;41839;41.386;2.082;2023-03-15T09:17:35;828.67;;;766.03;;
55933;SDS011;41839;41.386;2.082;2023-03-15T09:20:01;813.72;;;751.65;;
55933;SDS011;41839;41.386;2.082;2023-03-15T09:22:35;851.53;;;786.75;;
55933;SDS011;41839;41.386;2.082;2023-03-15T09:25:01;844.80;;;781.78;;
55933;SDS011;41839;41.386;2.082;2023-03-15T09:27:28;867.50;;;802.00;;
55933;SDS011;41839;41.386;2.082;2023-03-15T09:29:57;840.33;;;777.42;;
55933;SDS011;41839;41.386;2.082;2023-03-15T09:32:22;874.70;;;810.55;;
55933;SDS011;41839;41.386;2.082;2023-03-15T09:34:48;853.80;;;791.35;;
55933;SDS011;41839;41.386;2.082;2023-03-15T09:37:13;861.40;;;800.00;;
55933;SDS011;41839;41.386;2.082;2023-03-15T09:39:39;862.38;;;800.33;;
55933;SDS011;41839;41.386;2.082;2023-03-15T09:42:06;836.97;;;775.63;;
55933;SDS011;41839;41.386;2.082;2023-03-15T09:52:34;903.22;;;835.88;;
55933;SDS011;41839;41.386;2.082;2023-03-15T09:55:15;860.03;;;797.63;;
55933;SDS011;41839;41.386;2.082;2023-03-15T09:57:59;877.45;;;814.63;;
55933;SDS011;41839;41.386;2.082;2023-03-15T10:06:20;875.28;;;812.30;;
55933;SDS011;41839;41.386;2.082;2023-03-15T10:08:54;907.97;;;843.47;;
55933;SDS011;41839;41.386;2.082;2023-03-15T10:11:42;914.22;;;850.03;;
55933;SDS011;41839;41.386;2.082;2023-03-15T10:16:58;906.60;;;844.72;;
55933;SDS011;41839;41.386;2.082;2023-03-15T10:27:23;959.13;;;889.92;;
55933;SDS011;41839;41.386;2.082;2023-03-15T10:29:56;927.05;;;860.63;;
55933;SDS011;41839;41.386;2.082;2023-03-15T10:32:27;936.92;;;870.42;;
55933;SDS011;41839;41.386;2.082;2023-03-15T10:34:58;953.40;;;887.05;;
55933;SDS011;41839;41.386;2.082;2023-03-15T10:37:25;949.80;;;883.22;;
55933;SDS011;41839;41.386;2.082;2023-03-15T10:39:54;950.17;;;884.45;;
55933;SDS011;41839;41.386;2.082;2023-03-15T10:42:31;953.35;;;887.30;;
55933;SDS011;41839;41.386;2.082;2023-03-15T10:44:58;949.50;;;883.95;;
55933;SDS011;41839;41.386;2.082;2023-03-15T10:50:05;963.55;;;896.50;;
55933;SDS011;41839;41.386;2.082;2023-03-15T10:52:36;960.60;;;894.45;;
55933;SDS011;41839;41.386;2.082;2023-03-15T10:55:04;971.08;;;903.42;;
55933;SDS011;41839;41.386;2.082;2023-03-15T10:57:40;995.47;;;917.05;;
55933;SDS011;41839;41.386;2.082;2023-03-15T11:00:25;981.17;;;910.38;;
55933;SDS011;41839;41.386;2.082;2023-03-15T11:03:03;992.63;;;917.13;;
55933;SDS011;41839;41.386;2.082;2023-03-15T11:05:32;1016.60;;;943.03;;
55933;SDS011;41839;41.386;2.082;2023-03-15T11:08:05;1024.65;;;949.72;;
55933;SDS011;41839;41.386;2.082;2023-03-15T11:10:36;999.70;;;925.75;;
55933;SDS011;41839;41.386;2.082;2023-03-15T11:13:18;1024.40;;;948.08;;
55933;SDS011;41839;41.386;2.082;2023-03-15T11:18:15;987.28;;;917.60;;
55933;SDS011;41839;41.386;2.082;2023-03-15T11:20:42;1018.78;;;943.65;;
55933;SDS011;41839;41.386;2.082;2023-03-15T11:23:20;1026.97;;;948.92;;
55933;SDS011;41839;41.386;2.082;2023-03-15T11:25:52;1015.45;;;935.03;;
55933;SDS011;41839;41.386;2.082;2023-03-15T11:28:22;1066.63;;;975.67;;
55933;SDS011;41839;41.386;2.082;2023-03-15T11:30:51;1072.22;;;978.65;;
55933;SDS011;41839;41.386;2.082;2023-03-15T11:33:25;1048.03;;;950.80;;
55933;SDS011;41839;41.386;2.082;2023-03-15T11:37:55;1039.65;;;945.92;;
55933;SDS011;41839;41.386;2.082;2023-03-15T11:40:35;1013.38;;;931.10;;
55933;SDS011;41839;41.386;2.082;2023-03-15T11:43:07;1034.50;;;950.15;;
55933;SDS011;41839;41.386;2.082;2023-03-15T11:51:07;1006.80;;;923.28;;
55933;SDS011;41839;41.386;2.082;2023-03-15T11:53:37;998.60;;;915.67;;
55933;SDS011;41839;41.386;2.082;2023-03-15T11:56:26;993.83;;;910.80;;
55933;SDS011;41839;41.386;2.082;2023-03-15T12:01:49;979.63;;;894.95;;
55933;SDS011;41839;41.386;2.082;2023-03-15T12:06:57;987.75;;;903.78;;
55933;SDS011;41839;41.386;2.082;2023-03-15T12:12:02;955.63;;;873.72;;
55933;SDS011;41839;41.386;2.082;2023-03-15T12:14:33;952.08;;;871.20;;
55933;SDS011;41839;41.386;2.082;2023-03-15T12:19:47;957.53;;;877.72;;
55933;SDS011;41839;41.386;2.082;2023-03-15T12:22:36;955.33;;;874.38;;
55933;SDS011;41839;41.386;2.082;2023-03-15T12:26:30;932.95;;;856.90;;
55933;SDS011;41839;41.386;2.082;2023-03-15T12:31:05;931.80;;;854.65;;
55933;SDS011;41839;41.386;2.082;2023-03-15T12:33:47;930.22;;;852.28;;
55933;SDS011;41839;41.386;2.082;2023-03-15T12:36:17;940.20;;;859.70;;
55933;SDS011;41839;41.386;2.082;2023-03-15T12:39:35;921.78;;;839.42;;
55933;SDS011;41839;41.386;2.082;2023-03-15T12:41:46;946.65;;;866.03;;
55933;SDS011;41839;41.386;2.082;2023-03-15T12:51:09;948.80;;;869.92;;
55933;SDS011;41839;41.386;2.082;2023-03-15T12:53:39;927.97;;;847.95;;
55933;SDS011;41839;41.386;2.082;2023-03-15T12:56:22;924.75;;;844.60;;
55933;SDS011;41839;41.386;2.082;2023-03-15T12:58:54;930.92;;;846.72;;
55933;SDS011;41839;41.386;2.082;2023-03-15T13:01:27;943.53;;;857.58;;
55933;SDS011;41839;41.386;2.082;2023-03-15T13:03:53;905.05;;;822.45;;
55933;SDS011;41839;41.386;2.082;2023-03-15T13:06:21;920.78;;;842.08;;
55933;SDS011;41839;41.386;2.082;2023-03-15T13:12:37;923.47;;;846.38;;
55933;SDS011;41839;41.386;2.082;2023-03-15T13:15:11;944.97;;;864.73;;
55933;SDS011;41839;41.386;2.082;2023-03-15T13:20:40;893.15;;;824.65;;
55933;SDS011;41839;41.386;2.082;2023-03-15T13:23:30;878.85;;;810.30;;
55933;SDS011;41839;41.386;2.082;2023-03-15T13:28:39;883.85;;;816.72;;
55933;SDS011;41839;41.386;2.082;2023-03-15T13:33:39;910.03;;;839.88;;
55933;SDS011;41839;41.386;2.082;2023-03-15T13:36:12;918.92;;;848.47;;
55933;SDS011;41839;41.386;2.082;2023-03-15T13:38:41;869.03;;;808.47;;
55933;SDS011;41839;41.386;2.082;2023-03-15T13:41:25;909.63;;;845.58;;
55933;SDS011;41839;41.386;2.082;2023-03-15T13:44:03;889.78;;;828.17;;
55933;SDS011;41839;41.386;2.082;2023-03-15T13:46:37;915.90;;;852.40;;
55933;SDS011;41839;41.386;2.082;2023-03-15T13:49:04;918.53;;;854.83;;
55933;SDS011;41839;41.386;2.082;2023-03-15T13:51:31;895.25;;;831.28;;
55933;SDS011;41839;41.386;2.082;2023-03-15T13:54:44;914.03;;;849.00;;
55933;SDS011;41839;41.386;2.082;2023-03-15T13:59:37;909.75;;;846.83;;
55933;SDS011;41839;41.386;2.082;2023-03-15T14:02:04;929.78;;;862.58;;
55933;SDS011;41839;41.386;2.082;2023-03-15T14:04:31;897.80;;;832.80;;
55933;SDS011;41839;41.386;2.082;2023-03-15T14:07:02;895.25;;;829.83;;
55933;SDS011;41839;41.386;2.082;2023-03-15T14:10:57;911.85;;;846.05;;
55933;SDS011;41839;41.386;2.082;2023-03-15T14:15:49;896.47;;;833.93;;
55933;SDS011;41839;41.386;2.082;2023-03-15T14:18:24;896.47;;;832.80;;
55933;SDS011;41839;41.386;2.082;2023-03-15T14:21:00;879.00;;;814.40;;
55933;SDS011;41839;41.386;2.082;2023-03-15T14:24:35;890.55;;;825.40;;
55933;SDS011;41839;41.386;2.082;2023-03-15T14:27:24;908.65;;;842.33;;
55933;SDS011;41839;41.386;2.082;2023-03-15T14:29:52;876.00;;;813.00;;
55933;SDS011;41839;41.386;2.082;2023-03-15T14:32:31;898.13;;;833.20;;
55933;SDS011;41839;41.386;2.082;2023-03-15T14:38:15;908.53;;;840.40;;
55933;SDS011;41839;41.386;2.082;2023-03-15T14:40:45;879.05;;;812.78;;
55933;SDS011;41839;41.386;2.082;2023-03-15T14:43:11;898.20;;;830.05;;
55933;SDS011;41839;41.386;2.082;2023-03-15T14:45:38;904.53;;;836.67;;
55933;SDS011;41839;41.386;2.082;2023-03-15T14:48:48;915.83;;;846.88;;
55933;SDS011;41839;41.386;2.082;2023-03-15T14:50:56;879.25;;;812.45;;
55933;SDS011;41839;41.386;2.082;2023-03-15T14:53:22;888.58;;;820.17;;
55933;SDS011;41839;41.386;2.082;2023-03-15T14:56:58;923.22;;;850.70;;
55933;SDS011;41839;41.386;2.082;2023-03-15T14:59:24;917.67;;;845.20;;
55933;SDS011;41839;41.386;2.082;2023-03-15T15:01:55;918.63;;;844.42;;
55933;SDS011;41839;41.386;2.082;2023-03-15T15:04:22;893.95;;;819.03;;
55933;SDS011;41839;41.386;2.082;2023-03-15T15:06:53;931.75;;;852.47;;
55933;SDS011;41839;41.386;2.082;2023-03-15T15:09:20;894.42;;;818.25;;
55933;SDS011;41839;41.386;2.082;2023-03-15T15:11:48;923.25;;;845.92;;
55933;SDS011;41839;41.386;2.082;2023-03-15T15:14:14;892.70;;;817.93;;
55933;SDS011;41839;41.386;2.082;2023-03-15T15:16:40;922.08;;;841.72;;
55933;SDS011;41839;41.386;2.082;2023-03-15T15:19:06;929.53;;;843.88;;
55933;SDS011;41839;41.386;2.082;2023-03-15T15:21:32;903.20;;;825.80;;
55933;SDS011;41839;41.386;2.082;2023-03-15T15:24:02;943.13;;;857.42;;
55933;SDS011;41839;41.386;2.082;2023-03-15T15:26:31;900.65;;;825.83;;
55933;SDS011;41839;41.386;2.082;2023-03-15T15:28:58;915.50;;;844.00;;
55933;SDS011;41839;41.386;2.082;2023-03-15T15:31:25;890.42;;;821.35;;
55933;SDS011;41839;41.386;2.082;2023-03-15T15:33:52;894.13;;;823.78;;
55933;SDS011;41839;41.386;2.082;2023-03-15T15:38:49;888.97;;;818.47;;